Terminal Aerodrome Forecast
Issued by NWS

Home | Current Version | Previous Version | Text Only | Print | Product List | Glossary On
Versions: 1 2 3 4 5 6 7 8 9 10 11 12 13 14 15 16 17
000
FTUS43 KGRB 291139
TAFAUW
TAF
KAUW 291139Z 2912/3012 24010G15KT P6SM BKN012
      TEMPO 2912/2915 4SM BR BKN006
     FM291500 27012G18KT P6SM BKN025
     FM300000 28010KT P6SM BKN040
     FM300600 VRB03KT 6SM BR BKN025
      TEMPO 3008/3012 3SM BR=

USA.gov is the U.S. government's official web portal to all federal, state and local government web resources and services.